Time;durP1;ratioP1;P1;durP2;ratioP2;P2;SDS_P1;SDS_P2;PMS_P1;PMS_P2;Temp;Humidity;BMP_temperature;BMP_pressure;BME280_temperature;BME280_humidity;BME280_pressure;Samples;Min_cycle;Max_cycle;Signal;HPM_P1;HPM_P2
2022/03/23 00:00:25;;;;;;;8.90;8.10;;;;;;;4.30;50.81;101553.53;10482392;28;20043;-71
2022/03/23 00:05:28;;;;;;;8.55;7.78;;;;;;;4.58;50.33;101551.41;10481824;28;20048;-72
2022/03/23 00:10:30;;;;;;;9.68;8.77;;;;;;;4.62;49.55;101540.19;10499696;28;20131;-71
2022/03/23 00:15:32;;;;;;;9.20;7.78;;;;;;;4.58;48.79;101536.66;10500168;28;20404;-71
2022/03/23 00:20:33;;;;;;;13.88;9.38;;;;;;;4.51;50.04;101530.47;10482658;28;20043;-72
2022/03/23 00:25:36;;;;;;;11.68;8.20;;;;;;;4.38;50.60;101538.03;10499978;28;20041;-72
2022/03/23 00:30:38;;;;;;;8.88;8.07;;;;;;;4.16;51.10;101542.88;10481368;28;20552;-72
2022/03/23 00:36:01;;;;;;;9.55;8.65;;;;;;;4.26;51.08;101543.91;10500276;28;20102;-72
2022/03/23 00:41:03;;;;;;;9.45;8.65;;;;;;;4.18;51.98;101543.78;10480830;28;20051;-72
2022/03/23 00:46:05;;;;;;;9.85;8.95;;;;;;;4.11;51.65;101526.28;10499339;28;20469;-72
2022/03/23 00:51:07;;;;;;;12.68;8.85;;;;;;;4.20;50.58;101534.25;10482951;28;20060;-73
2022/03/23 00:56:09;;;;;;;8.80;8.00;;;;;;;4.25;49.69;101527.44;10467369;28;20386;-71
2022/03/23 01:01:13;;;;;;;12.02;8.48;;;;;;;4.51;49.34;101525.25;10464742;28;20045;-71
2022/03/23 01:06:15;;;;;;;12.07;8.45;;;;;;;4.48;49.00;101520.00;10481396;28;20127;-71
2022/03/23 01:11:17;;;;;;;9.63;8.73;;;;;;;4.28;49.18;101524.84;10499434;28;20131;-72
2022/03/23 01:16:19;;;;;;;9.27;8.38;;;;;;;4.14;50.09;101517.66;10481245;28;20052;-72
2022/03/23 01:21:21;;;;;;;14.57;8.98;;;;;;;4.03;50.91;101522.69;10500165;28;20087;-71
2022/03/23 01:26:23;;;;;;;9.38;8.48;;;;;;;3.96;51.88;101524.28;10479993;28;20076;-71
2022/03/23 01:31:26;;;;;;;9.68;8.43;;;;;;;3.80;51.82;101528.28;10498137;28;20043;-71
2022/03/23 01:36:31;;;;;;;9.38;8.40;;;;;;;3.75;52.45;101524.72;10499865;28;20075;-71
2022/03/23 01:41:37;;;;;;;9.40;7.63;;;;;;;3.84;49.16;101523.16;10504673;28;20536;-71
2022/03/23 01:47:01;;;;;;;9.55;8.65;;;;;;;3.68;51.33;101517.66;10471301;28;20052;-71
2022/03/23 01:52:07;;;;;;;9.13;8.25;;;;;;;3.67;51.37;101515.88;10488526;28;20064;-71
2022/03/23 01:57:12;;;;;;;9.00;8.10;;;;;;;3.34;51.66;101521.28;10489139;28;20422;-71
2022/03/23 02:02:14;;;;;;;11.13;8.98;;;;;;;3.53;52.07;101514.75;10491171;28;20041;-71
2022/03/23 02:07:30;;;;;;;12.05;8.73;;;;;;;3.58;50.98;101510.50;10487853;28;20513;-71
2022/03/23 02:12:32;;;;;;;9.70;8.70;;;;;;;3.29;53.29;101515.13;10506390;28;20086;-71
2022/03/23 02:17:34;;;;;;;10.00;8.98;;;;;;;3.26;52.89;101507.25;10488315;28;20059;-71
2022/03/23 02:22:36;;;;;;;10.80;8.27;;;;;;;3.16;52.22;101510.50;10486631;28;20060;-71
2022/03/23 02:27:38;;;;;;;9.55;8.65;;;;;;;2.88;54.37;101503.78;10487258;28;20075;-71
2022/03/23 02:32:40;;;;;;;10.25;9.00;;;;;;;3.03;53.91;101505.03;10505221;28;20413;-72
2022/03/23 02:37:42;;;;;;;9.27;8.35;;;;;;;2.95;53.10;101500.50;10505481;28;20383;-71
2022/03/23 02:42:44;;;;;;;10.20;9.18;;;;;;;2.92;53.40;101500.41;10486813;28;20115;-71
2022/03/23 02:47:45;;;;;;;9.80;8.85;;;;;;;2.99;54.02;101507.50;10503938;28;20094;-71
2022/03/23 03:03:28;;;;;;;12.70;9.15;;;;;;;2.40;54.57;101504.38;10502626;28;20478;-72
2022/03/23 03:08:45;;;;;;;11.25;8.75;;;;;;;2.49;54.44;101499.41;10502578;28;20120;-71
2022/03/23 03:13:48;;;;;;;10.73;9.15;;;;;;;2.67;53.51;101507.66;10485895;28;20682;-71
2022/03/23 03:18:50;;;;;;;10.10;9.10;;;;;;;2.55;53.95;101511.66;10504672;28;20047;-71
2022/03/23 03:23:52;;;;;;;13.30;9.02;;;;;;;2.41;54.14;101507.00;10502416;28;20079;-71
2022/03/23 03:28:53;;;;;;;10.13;9.13;;;;;;;2.28;54.35;101512.72;10502093;28;20094;-72
2022/03/23 03:33:55;;;;;;;12.10;8.70;;;;;;;2.43;54.13;101509.63;10501951;28;20402;-71
2022/03/23 03:38:56;;;;;;;10.15;9.13;;;;;;;2.31;54.42;101499.84;10501589;28;20049;-71
2022/03/23 03:43:58;;;;;;;9.02;8.15;;;;;;;2.13;55.31;101500.25;10500628;28;20603;-71
2022/03/23 03:48:59;;;;;;;11.23;9.07;;;;;;;1.95;55.79;101505.84;10501222;28;20044;-71
2022/03/23 03:54:01;;;;;;;9.73;8.73;;;;;;;1.76;56.51;101509.63;10501838;28;20047;-71
2022/03/23 03:59:03;;;;;;;10.90;8.40;;;;;;;1.93;56.02;101502.31;10483848;28;20127;-71
2022/03/23 04:04:04;;;;;;;9.70;8.43;;;;;;;2.03;55.64;101511.19;10500202;28;20043;-71
2022/03/23 04:09:06;;;;;;;9.85;8.88;;;;;;;1.91;56.00;101504.00;10501379;28;20044;-70
2022/03/23 04:14:07;;;;;;;13.85;9.13;;;;;;;1.95;56.38;101516.19;10499825;28;20082;-71
2022/03/23 04:19:09;;;;;;;11.52;9.68;;;;;;;1.80;56.64;101508.00;10481780;28;20049;-71
2022/03/23 04:24:11;;;;;;;10.25;8.95;;;;;;;1.81;57.32;101512.34;10499631;28;20033;-71
2022/03/23 04:29:12;;;;;;;11.07;9.25;;;;;;;1.61;57.23;101513.50;10500263;28;20044;-71
2022/03/23 04:34:14;;;;;;;10.25;9.18;;;;;;;1.57;57.45;101524.63;10501657;28;20041;-71
2022/03/23 04:39:15;;;;;;;14.23;9.82;;;;;;;1.84;57.34;101517.63;10500227;28;20052;-71
2022/03/23 04:44:17;;;;;;;19.00;10.98;;;;;;;1.96;57.11;101514.47;10499524;28;20048;-71
2022/03/23 04:49:19;;;;;;;19.25;10.85;;;;;;;1.74;57.75;101518.19;10499119;28;20494;-71
2022/03/23 04:54:21;;;;;;;13.25;9.75;;;;;;;1.61;57.93;101511.78;10502041;28;20390;-71
2022/03/23 04:59:22;;;;;;;26.35;9.90;;;;;;;1.63;57.62;101517.00;10499409;28;20414;-71
2022/03/23 05:04:24;;;;;;;39.00;10.45;;;;;;;1.39;57.98;101520.66;10500701;28;20078;-71
2022/03/23 05:09:26;;;;;;;42.22;11.48;;;;;;;1.80;56.83;101515.78;10498613;28;20126;-71
2022/03/23 05:14:27;;;;;;;14.43;10.60;;;;;;;1.81;57.34;101516.66;10500846;28;20040;-71
2022/03/23 05:19:30;;;;;;;39.45;11.25;;;;;;;1.72;58.51;101525.91;10501112;28;20052;-72
2022/03/23 05:24:31;;;;;;;20.02;12.38;;;;;;;1.56;59.22;101523.75;10501434;28;20094;-71
2022/03/23 05:29:33;;;;;;;17.20;9.73;;;;;;;1.44;59.11;101529.44;10495641;22;20131;-70
2022/03/23 05:34:34;;;;;;;13.95;10.65;;;;;;;1.50;59.46;101529.59;10480790;28;20055;-70
2022/03/23 05:39:36;;;;;;;16.42;10.40;;;;;;;1.84;59.21;101529.69;10499120;28;20045;-70
2022/03/23 05:44:38;;;;;;;15.48;11.13;;;;;;;1.83;59.22;101533.13;10498982;28;20401;-70
2022/03/23 05:49:40;;;;;;;14.43;10.63;;;;;;;1.90;58.88;101529.84;10498706;28;20056;-69
2022/03/23 05:54:42;;;;;;;15.55;10.02;;;;;;;2.59;56.91;101516.09;10481093;28;20115;-69
2022/03/23 05:59:44;;;;;;;17.20;11.32;;;;;;;2.44;57.72;101522.66;10498677;28;20140;-69
2022/03/23 06:04:46;;;;;;;12.10;10.10;;;;;;;2.62;57.96;101526.56;10498778;28;20504;-70
2022/03/23 06:09:47;;;;;;;18.40;10.95;;;;;;;2.93;58.05;101520.38;10499508;28;20098;-69
2022/03/23 06:14:49;;;;;;;14.88;10.65;;;;;;;4.78;53.74;101518.72;10499165;28;20040;-70
2022/03/23 06:19:50;;;;;;;12.27;10.50;;;;;;;6.41;49.21;101513.81;10497823;28;20055;-69
2022/03/23 06:24:52;;;;;;;12.38;9.73;;;;;;;7.63;45.81;101514.63;10498971;28;20044;-69
2022/03/23 06:29:53;;;;;;;12.88;9.45;;;;;;;8.85;42.56;101506.06;10506792;28;20508;-68
2022/03/23 06:34:55;;;;;;;11.00;9.98;;;;;;;9.29;41.15;101515.59;10504803;28;20063;-68
2022/03/23 06:39:57;;;;;;;11.85;10.50;;;;;;;8.68;41.85;101523.59;10504468;28;20127;-68
2022/03/23 06:44:59;;;;;;;18.52;11.52;;;;;;;8.31;42.59;101518.28;10505153;28;20040;-68
2022/03/23 06:50:02;;;;;;;15.43;11.90;;;;;;;7.65;43.74;101520.72;10504863;28;20053;-67
2022/03/23 06:55:06;;;;;;;15.68;12.82;;;;;;;7.42;45.06;101523.22;10486288;28;20040;-68
2022/03/23 07:00:15;;;;;;;20.08;14.50;;;;;;;7.41;45.25;101524.09;10485773;28;20049;-67
2022/03/23 07:05:18;;;;;;;20.23;14.73;;;;;;;7.62;45.27;101520.72;10505041;28;20457;-68
2022/03/23 07:10:19;;;;;;;33.03;16.30;;;;;;;7.99;43.02;101518.22;10485367;28;20513;-68
2022/03/23 07:15:22;;;;;;;16.75;13.77;;;;;;;8.73;41.15;101508.72;10487323;28;20045;-68
2022/03/23 07:20:24;;;;;;;17.10;13.18;;;;;;;8.77;40.83;101511.34;10501236;28;20391;-68
2022/03/23 07:25:26;;;;;;;13.82;12.30;;;;;;;9.01;40.05;101510.41;10502624;28;20036;-68
2022/03/23 07:30:29;;;;;;;11.73;10.30;;;;;;;9.68;36.53;101505.84;10502804;28;20044;-69
2022/03/23 07:35:31;;;;;;;13.25;9.50;;;;;;;9.45;38.51;101505.94;10485743;28;20123;-68
2022/03/23 07:40:32;;;;;;;13.25;9.85;;;;;;;9.39;37.34;101514.72;10502274;28;20106;-69
2022/03/23 07:45:34;;;;;;;11.23;9.82;;;;;;;9.77;38.38;101525.03;10494893;28;20040;-68
2022/03/23 07:50:36;;;;;;;10.82;8.18;;;;;;;10.18;36.15;101515.19;10501993;28;20053;-69
2022/03/23 07:55:37;;;;;;;10.35;7.82;;;;;;;10.32;36.06;101514.25;10501388;28;20036;-68
2022/03/23 08:00:41;;;;;;;9.70;8.60;;;;;;;10.71;33.61;101506.91;10501022;28;20105;-68
2022/03/23 08:05:44;;;;;;;9.73;8.90;;;;;;;10.41;34.67;101504.56;10497567;28;20113;-68
2022/03/23 08:10:45;;;;;;;10.15;9.15;;;;;;;10.89;35.24;101510.25;10500933;28;20102;-68
2022/03/23 08:15:47;;;;;;;12.15;8.80;;;;;;;11.37;33.46;101498.34;10500056;28;20036;-67
2022/03/23 08:20:49;;;;;;;9.15;8.07;;;;;;;11.97;32.52;101497.63;10500045;28;20048;-68
2022/03/23 08:25:52;;;;;;;16.02;9.57;;;;;;;12.09;32.95;101503.59;10504474;28;20048;-68
2022/03/23 08:30:53;;;;;;;12.52;9.18;;;;;;;12.49;32.05;101504.75;10498407;28;20052;-68
2022/03/23 08:35:55;;;;;;;12.07;9.68;;;;;;;12.62;32.35;101499.25;10498428;28;20036;-69
2022/03/23 08:40:57;;;;;;;12.93;9.55;;;;;;;12.50;31.64;101499.44;10499825;28;20110;-68
2022/03/23 08:46:00;;;;;;;11.70;10.55;;;;;;;12.79;31.09;101498.06;10498993;28;20098;-68
2022/03/23 08:51:02;;;;;;;11.65;10.30;;;;;;;13.50;30.84;101498.53;10500198;28;20059;-69
2022/03/23 08:56:03;;;;;;;11.45;10.27;;;;;;;14.04;30.11;101498.22;10498582;28;20437;-69
2022/03/23 09:01:06;;;;;;;11.05;10.15;;;;;;;13.95;30.96;101494.94;10499403;28;20044;-69
2022/03/23 09:06:07;;;;;;;12.15;10.90;;;;;;;14.52;30.07;101495.38;10498827;28;20119;-69
2022/03/23 09:11:11;;;;;;;12.43;11.32;;;;;;;14.22;30.58;101496.06;10497681;28;20076;-69
2022/03/23 09:16:12;;;;;;;12.38;11.07;;;;;;;14.64;30.46;101488.88;10505211;22;20376;-80
2022/03/23 09:21:14;;;;;;;11.35;10.30;;;;;;;14.70;30.56;101494.03;10446901;28;20053;-80
2022/03/23 09:26:19;;;;;;;15.52;11.40;;;;;;;15.41;29.11;101484.19;10454381;28;20033;-81
2022/03/23 09:31:30;;;;;;;29.73;17.50;;;;;;;15.95;29.88;101488.78;10454035;28;20503;-80
2022/03/23 09:41:56;;;;;;;21.38;13.85;;;;;;;16.25;28.57;101468.38;10424742;28;20121;-80
2022/03/23 09:46:58;;;;;;;13.65;12.25;;;;;;;16.65;29.79;101470.56;10429356;28;20483;-79
2022/03/23 09:52:05;;;;;;;;;;;;;;;16.65;28.98;101473.22;10417226;28;20060;-82
2022/03/23 09:57:07;;;;;;;13.55;11.05;;;;;;;17.64;28.89;101463.44;10447492;28;19960;-81
2022/03/23 10:02:13;;;;;;;13.55;12.40;;;;;;;18.12;28.11;101454.50;10469346;28;20053;-79
2022/03/23 10:07:42;;;;;;;12.85;11.73;;;;;;;17.41;28.87;101453.69;10455685;28;20049;-81
2022/03/23 10:13:27;;;;;;;13.95;12.57;;;;;;;18.21;28.28;101442.63;10450671;28;20568;-82
2022/03/23 10:18:51;;;;;;;13.68;12.38;;;;;;;19.03;27.19;101439.06;10426598;28;20045;-82
2022/03/23 10:23:59;;;;;;;14.13;12.90;;;;;;;18.80;27.42;101442.75;10438184;28;20069;-80
2022/03/23 10:29:01;;;;;;;13.60;12.30;;;;;;;18.44;27.54;101437.19;10441421;28;20041;-81
2022/03/23 10:34:09;;;;;;;15.07;13.55;;;;;;;19.18;26.91;101439.34;10435699;28;20553;-79
2022/03/23 10:39:14;;;;;;;12.98;11.98;;;;;;;19.08;27.29;101431.78;10445802;28;20041;-81
2022/03/23 10:44:16;;;;;;;14.23;12.95;;;;;;;19.34;27.04;101432.34;10446540;28;20068;-81
2022/03/23 10:49:36;;;;;;;14.63;13.32;;;;;;;19.31;25.95;101430.72;10445315;28;20468;-82
2022/03/23 10:54:37;;;;;;;16.23;13.68;;;;;;;19.53;25.55;101413.72;10446109;28;20063;-83
2022/03/23 10:59:45;;;;;;;13.82;12.82;;;;;;;19.61;25.34;101415.13;10444467;28;20045;-82
2022/03/23 11:04:50;;;;;;;14.23;13.23;;;;;;;19.46;25.37;101418.47;10429064;28;20046;-83
2022/03/23 11:20:39;;;;;;;14.30;12.80;;;;;;;20.05;25.47;101392.53;10433717;28;20548;-81
2022/03/23 11:25:41;;;;;;;14.30;13.30;;;;;;;20.05;26.31;101382.72;10434268;28;20052;-82
2022/03/23 11:30:44;;;;;;;14.93;13.75;;;;;;;20.31;25.38;101388.56;10440972;28;20053;-81
2022/03/23 11:35:49;;;;;;;14.77;13.65;;;;;;;20.35;26.12;101385.66;10418684;23;20047;-82
2022/03/23 11:40:52;;;;;;;14.43;13.15;;;;;;;20.21;25.18;101376.63;10300854;28;20125;-80
2022/03/23 11:45:55;;;;;;;13.77;12.88;;;;;;;20.02;25.79;101371.34;10303532;28;20137;-80
2022/03/23 11:51:40;;;;;;;18.98;13.27;;;;;;;20.03;26.32;101362.41;10311041;28;20055;-80
2022/03/23 11:56:57;;;;;;;14.43;13.43;;;;;;;20.01;24.98;101358.94;10328334;28;20059;-81
2022/03/23 12:01:59;;;;;;;13.82;12.48;;;;;;;20.37;26.04;101348.22;10328529;28;20058;-80
2022/03/23 12:07:01;;;;;;;14.38;12.93;;;;;;;20.59;25.17;101346.19;10310633;28;20118;-80
2022/03/23 12:12:11;;;;;;;14.13;12.95;;;;;;;19.96;24.58;101337.81;10307187;28;20115;-80
2022/03/23 12:17:18;;;;;;;19.80;13.20;;;;;;;19.84;24.11;101335.78;10301457;28;20034;-80
2022/03/23 12:22:42;;;;;;;12.73;11.82;;;;;;;19.08;25.23;101325.16;10290999;28;20043;-81
2022/03/23 12:28:17;;;;;;;11.45;10.65;;;;;;;18.84;25.69;101324.47;10309326;28;20093;-81
2022/03/23 12:33:21;;;;;;;14.43;10.80;;;;;;;18.34;25.25;101322.25;10295979;28;20431;-80
2022/03/23 12:38:27;;;;;;;12.65;11.63;;;;;;;18.57;24.07;101318.56;10293040;28;20073;-80
2022/03/23 12:43:36;;;;;;;13.05;11.95;;;;;;;18.19;25.32;101316.72;10298722;28;20054;-80
2022/03/23 12:59:25;;;;;;;13.88;12.70;;;;;;;17.92;26.46;101310.78;10296472;28;20051;-80
2022/03/23 13:04:42;;;;;;;15.98;14.68;;;;;;;17.75;27.64;101303.50;10311448;28;20052;-81
2022/03/23 13:09:43;;;;;;;15.98;14.60;;;;;;;17.58;28.30;101291.75;10278007;28;20058;-80
2022/03/23 13:14:45;;;;;;;15.68;14.18;;;;;;;17.61;28.38;101299.56;10276492;28;20053;-81
2022/03/23 13:19:55;;;;;;;14.95;13.93;;;;;;;17.54;28.71;101297.25;10273291;28;20156;-80
2022/03/23 13:25:08;;;;;;;14.38;13.38;;;;;;;17.65;28.35;101289.69;10284916;28;20520;-81
2022/03/23 13:30:12;;;;;;;15.65;14.10;;;;;;;17.55;28.41;101288.34;10301527;28;20042;-80
2022/03/23 13:35:17;;;;;;;14.65;13.43;;;;;;;17.48;28.51;101285.03;10302403;28;20039;-80
2022/03/23 13:43:19;;;;;;;14.85;13.85;;;;;;;17.48;29.31;101282.38;10310266;28;20084;-80
2022/03/23 13:45:58;;;;;;;14.60;13.52;;;;;;;17.37;28.68;101280.16;10327262;28;20085;-78
2022/03/23 13:51:00;;;;;;;14.75;13.45;;;;;;;17.23;28.35;101277.22;10325870;28;20050;-79
2022/03/23 13:56:02;;;;;;;15.68;14.35;;;;;;;17.31;27.97;101267.13;10312230;28;20055;-79
2022/03/23 14:01:05;;;;;;;17.00;13.52;;;;;;;17.21;28.45;101276.38;10314448;28;20555;-81
2022/03/23 14:06:14;;;;;;;14.88;13.65;;;;;;;17.00;28.32;101274.56;10326277;28;20042;-81
2022/03/23 14:11:16;;;;;;;14.02;12.60;;;;;;;17.03;28.28;101270.00;10328354;28;20093;-79
2022/03/23 14:16:25;;;;;;;14.73;13.10;;;;;;;17.27;26.96;101267.31;10301530;28;20069;-79
2022/03/23 14:21:29;;;;;;;12.88;11.68;;;;;;;17.14;27.81;101262.50;10300690;28;20039;-80
2022/03/23 14:26:33;;;;;;;14.50;12.38;;;;;;;16.98;28.11;101271.13;10317570;28;20043;-81
2022/03/23 14:31:40;;;;;;;15.90;14.13;;;;;;;17.08;28.49;101259.19;10294960;28;20055;-81
2022/03/23 14:36:42;;;;;;;16.50;15.02;;;;;;;17.10;28.59;101260.03;10294660;28;20068;-80
2022/03/23 14:41:57;;;;;;;17.20;15.80;;;;;;;17.05;29.61;101249.56;10320849;28;20082;-81
2022/03/23 14:46:59;;;;;;;22.98;15.52;;;;;;;17.02;29.90;101240.84;10289514;28;20066;-81
2022/03/23 14:52:15;;;;;;;19.93;18.17;;;;;;;16.94;30.18;101238.50;10321112;28;20043;-80
2022/03/23 14:57:17;;;;;;;18.48;16.63;;;;;;;16.92;29.74;101239.50;10308528;28;20053;-79
2022/03/23 15:02:18;;;;;;;29.50;16.70;;;;;;;17.03;30.20;101237.25;10309194;28;20070;-79
2022/03/23 15:18:01;;;;;;;15.95;14.73;;;;;;;16.75;28.83;101233.03;10310710;28;20066;-79
2022/03/23 15:23:04;;;;;;;16.23;15.02;;;;;;;16.60;29.13;101234.47;10340442;28;20034;-79
2022/03/23 15:28:07;;;;;;;17.02;14.98;;;;;;;16.63;28.99;101233.47;10314656;28;20103;-78
2022/03/23 15:33:14;;;;;;;16.85;15.32;;;;;;;16.51;29.33;101234.81;10332600;28;20063;-80
2022/03/23 15:38:16;;;;;;;20.60;15.82;;;;;;;16.65;29.25;101223.66;10306927;28;20051;-80
2022/03/23 15:43:18;;;;;;;17.30;16.10;;;;;;;16.51;29.69;101229.50;10291597;28;20051;-81
2022/03/23 15:48:25;;;;;;;17.50;15.65;;;;;;;16.30;30.02;101222.31;10328761;28;20051;-80
2022/03/23 15:53:27;;;;;;;17.50;15.85;;;;;;;16.24;29.74;101223.38;10304669;28;20053;-80
2022/03/23 15:58:29;;;;;;;18.83;16.88;;;;;;;16.13;30.19;101229.09;10315108;28;20133;-80
2022/03/23 16:03:31;;;;;;;29.65;17.33;;;;;;;16.25;29.93;101219.84;10314748;28;20043;-81
2022/03/23 16:08:34;;;;;;;18.13;16.27;;;;;;;16.08;30.15;101230.19;10310926;28;20102;-79
2022/03/23 16:13:39;;;;;;;16.75;15.55;;;;;;;16.01;30.06;101233.97;10307137;28;20057;-80
2022/03/23 16:18:41;;;;;;;17.27;15.50;;;;;;;15.85;30.40;101237.16;10310250;28;20049;-79
2022/03/23 16:23:44;;;;;;;16.15;14.98;;;;;;;15.60;30.30;101245.03;10307988;28;20054;-78
2022/03/23 16:28:46;;;;;;;15.95;14.75;;;;;;;15.53;29.98;101237.31;10307754;28;20068;-79
2022/03/23 16:33:50;;;;;;;17.95;16.35;;;;;;;15.38;30.47;101239.56;10308391;28;20080;-80
2022/03/23 16:38:52;;;;;;;17.88;16.25;;;;;;;15.24;30.88;101240.94;10320554;28;20035;-82
2022/03/23 16:43:54;;;;;;;17.48;16.13;;;;;;;15.20;30.78;101247.25;10292881;28;20058;-79
2022/03/23 16:48:58;;;;;;;19.98;16.58;;;;;;;14.87;31.10;101247.34;10301586;28;20051;-79
2022/03/23 16:54:01;;;;;;;18.15;16.60;;;;;;;14.65;31.74;101244.47;10291782;28;20053;-77
2022/03/23 16:59:03;;;;;;;18.90;17.55;;;;;;;14.46;32.11;101252.06;10306826;28;20110;-79
2022/03/23 17:14:45;;;;;;;20.10;18.60;;;;;;;14.10;34.13;101246.88;10308801;28;20491;-79
2022/03/23 17:19:49;;;;;;;23.70;20.35;;;;;;;14.23;35.20;101247.41;10285694;28;20065;-79
2022/03/23 17:24:55;;;;;;;32.80;26.02;;;;;;;14.01;35.03;101249.78;10268456;28;20124;-79
2022/03/23 17:29:59;;;;;;;26.58;23.95;;;;;;;13.65;35.73;101254.25;10290131;28;20111;-80
2022/03/23 17:35:03;;;;;;;31.00;27.67;;;;;;;13.46;36.18;101253.84;10287004;28;20243;-78
2022/03/23 17:40:05;;;;;;;23.60;21.23;;;;;;;13.63;35.98;101264.84;10283368;28;20031;-78
2022/03/23 17:45:08;;;;;;;24.77;21.88;;;;;;;13.52;35.90;101266.88;10289069;28;20059;-78
2022/03/23 17:50:11;;;;;;;27.08;21.33;;;;;;;13.14;36.63;101252.75;10305979;28;20492;-80
2022/03/23 17:55:12;;;;;;;23.33;20.95;;;;;;;13.07;36.81;101258.25;10291279;28;20069;-79
2022/03/23 18:00:14;;;;;;;25.20;22.67;;;;;;;12.82;37.64;101261.41;10308266;28;20057;-79
2022/03/23 18:05:16;;;;;;;24.10;22.27;;;;;;;12.80;37.24;101260.56;10291624;28;20054;-77
2022/03/23 18:10:18;;;;;;;25.45;22.90;;;;;;;12.53;38.03;101275.22;10291782;28;20047;-80
2022/03/23 18:15:21;;;;;;;26.88;22.70;;;;;;;12.68;37.54;101274.03;10294399;28;20047;-79
2022/03/23 18:20:23;;;;;;;24.77;22.27;;;;;;;12.74;37.76;101271.25;10289659;28;20061;-78
2022/03/23 18:25:28;;;;;;;25.20;22.80;;;;;;;12.43;39.04;101276.28;10298720;28;20043;-78
2022/03/23 18:30:50;;;;;;;25.27;22.92;;;;;;;12.00;39.80;101269.19;10313259;28;20133;-81
2022/03/23 18:36:10;;;;;;;26.33;23.67;;;;;;;11.67;41.09;101275.00;10293104;28;20054;-79
2022/03/23 18:41:19;;;;;;;37.67;25.35;;;;;;;11.56;41.61;101280.44;10279707;28;20555;-78
2022/03/23 18:46:22;;;;;;;29.33;26.83;;;;;;;11.23;42.24;101280.03;10299165;28;20042;-79
2022/03/23 18:51:24;;;;;;;31.42;27.55;;;;;;;10.98;42.70;101273.38;10294367;28;20070;-79
2022/03/23 18:56:27;;;;;;;31.10;26.67;;;;;;;10.88;42.89;101279.66;10298340;28;20071;-79
2022/03/23 19:01:29;;;;;;;30.65;27.40;;;;;;;10.82;43.68;101275.38;10299536;28;20047;-79
2022/03/23 19:06:34;;;;;;;32.53;28.02;;;;;;;10.81;43.33;101284.16;10307266;28;20046;-79
2022/03/23 19:11:36;;;;;;;38.72;29.55;;;;;;;10.71;43.58;101291.25;10339859;28;20045;-81
2022/03/23 19:16:38;;;;;;;36.70;29.58;;;;;;;10.34;44.53;101293.47;10340940;28;20062;-81
2022/03/23 19:21:39;;;;;;;35.58;28.10;;;;;;;10.04;44.13;101297.22;10334406;28;20054;-78
2022/03/23 19:26:50;;;;;;;34.63;28.35;;;;;;;9.84;44.21;101298.28;10304546;28;20116;-80
2022/03/23 19:31:54;;;;;;;29.85;27.17;;;;;;;9.73;44.91;101302.75;10329010;28;20088;-80
2022/03/23 19:36:57;;;;;;;40.30;29.50;;;;;;;10.11;47.08;101301.53;10315122;28;20061;-79
2022/03/23 19:42:03;;;;;;;41.60;29.50;;;;;;;9.94;46.91;101311.34;10315605;28;20051;-78
2022/03/23 19:47:07;;;;;;;40.45;30.02;;;;;;;9.79;46.95;101304.47;10294342;28;20462;-79
2022/03/23 19:52:09;;;;;;;37.42;30.38;;;;;;;9.46;47.77;101306.44;10279395;28;20051;-78
2022/03/23 19:57:11;;;;;;;45.30;30.25;;;;;;;8.95;48.21;101316.38;10310006;28;20051;-78
2022/03/23 20:02:13;;;;;;;31.67;28.20;;;;;;;9.40;49.81;101309.13;10310399;28;20049;-78
2022/03/23 20:07:16;;;;;;;44.13;30.30;;;;;;;9.18;48.26;101316.25;10314689;28;20097;-77
2022/03/23 20:12:18;;;;;;;38.40;29.77;;;;;;;8.91;48.64;101312.03;10307349;28;20105;-79
2022/03/23 20:17:20;;;;;;;32.72;27.83;;;;;;;8.98;49.09;101304.97;10327032;28;20047;-77
2022/03/23 20:22:27;;;;;;;30.02;26.95;;;;;;;8.54;50.22;101317.41;10327170;28;20047;-78
2022/03/23 20:27:28;;;;;;;31.90;28.13;;;;;;;8.49;49.84;101308.66;10330401;28;20046;-79
2022/03/23 20:32:30;;;;;;;35.88;28.30;;;;;;;8.35;49.20;101306.06;10304282;28;20498;-79
2022/03/23 20:37:31;;;;;;;32.35;27.42;;;;;;;8.25;50.42;101309.56;10291690;28;20043;-79
2022/03/23 20:42:33;;;;;;;30.35;26.20;;;;;;;7.97;50.86;101314.00;10310241;28;20067;-79
2022/03/23 20:47:37;;;;;;;46.08;30.92;;;;;;;8.22;51.43;101311.31;10288456;28;20038;-78
2022/03/23 20:52:39;;;;;;;40.55;28.25;;;;;;;7.98;50.66;101320.09;10287937;28;20577;-79
2022/03/23 20:57:40;;;;;;;39.45;29.17;;;;;;;7.89;51.63;101322.72;10288761;28;20055;-79
2022/03/23 21:02:45;;;;;;;34.88;27.88;;;;;;;7.53;52.14;101314.84;10307872;28;20046;-79
2022/03/23 21:07:53;;;;;;;31.48;28.08;;;;;;;7.37;52.19;101320.03;10288654;28;20046;-80
2022/03/23 21:12:54;;;;;;;30.58;27.35;;;;;;;7.29;52.61;101328.75;10285920;28;20051;-79
2022/03/23 21:17:56;;;;;;;39.95;29.02;;;;;;;7.62;53.63;101327.06;10304030;28;20042;-79
2022/03/23 21:22:58;;;;;;;40.45;30.20;;;;;;;7.79;52.38;101330.56;10303495;28;20129;-79
2022/03/23 21:28:00;;;;;;;32.53;28.83;;;;;;;7.20;53.74;101326.09;10286336;28;20082;-78
2022/03/23 21:33:03;;;;;;;36.33;29.80;;;;;;;6.86;53.86;101343.41;10303582;28;20077;-79
2022/03/23 21:38:05;;;;;;;46.10;30.98;;;;;;;7.53;54.00;101332.28;10288692;28;20077;-79
2022/03/23 21:43:07;;;;;;;36.45;30.77;;;;;;;7.03;54.31;101330.41;10324217;28;20145;-79
2022/03/23 21:48:10;;;;;;;39.67;31.13;;;;;;;7.06;53.92;101339.13;10321324;28;20108;-79
2022/03/23 21:53:12;;;;;;;47.97;32.17;;;;;;;6.96;54.53;101334.75;10286962;28;20047;-78
2022/03/23 21:58:13;;;;;;;44.13;32.33;;;;;;;7.13;54.72;101333.91;10296182;28;20417;-79
2022/03/23 22:03:15;;;;;;;43.30;32.20;;;;;;;6.64;55.70;101349.41;10308451;28;20102;-80
2022/03/23 22:08:17;;;;;;;43.08;31.85;;;;;;;7.06;54.70;101346.13;10308865;28;20047;-79
2022/03/23 22:13:21;;;;;;;46.78;33.38;;;;;;;7.03;54.93;101343.47;10292435;28;20057;-79
2022/03/23 22:18:23;;;;;;;44.45;31.00;;;;;;;6.54;55.44;101354.56;10310198;28;20077;-79
2022/03/23 22:23:25;;;;;;;45.45;32.15;;;;;;;6.55;56.63;101345.00;10290562;28;20096;-79
2022/03/23 22:28:27;;;;;;;44.92;32.15;;;;;;;6.19;56.99;101353.47;10296028;28;20126;-79
2022/03/23 22:33:28;;;;;;;39.47;31.95;;;;;;;6.20;57.26;101356.13;10292841;28;20039;-78
2022/03/23 22:38:30;;;;;;;42.50;32.03;;;;;;;6.18;57.88;101344.75;10311711;28;20043;-79
2022/03/23 22:43:33;;;;;;;40.00;32.95;;;;;;;6.15;57.16;101349.09;10309667;28;20047;-80
2022/03/23 22:48:36;;;;;;;48.42;33.75;;;;;;;5.65;58.24;101358.22;10292815;28;20159;-80
2022/03/23 22:53:39;;;;;;;41.75;32.55;;;;;;;5.65;59.11;101349.50;10293012;28;20047;-80
2022/03/23 22:58:41;;;;;;;44.92;34.03;;;;;;;5.96;58.29;101346.34;10307422;28;20047;-80
2022/03/23 23:03:43;;;;;;;48.30;34.42;;;;;;;5.64;58.52;101342.56;10291102;28;20039;-79
2022/03/23 23:08:45;;;;;;;49.85;34.70;;;;;;;5.48;59.03;101345.00;10308713;28;20388;-79
2022/03/23 23:13:46;;;;;;;43.60;32.92;;;;;;;5.14;59.61;101342.91;10313274;28;20073;-79
2022/03/23 23:18:48;;;;;;;44.55;32.58;;;;;;;5.30;60.37;101347.41;10292367;28;20047;-77
2022/03/23 23:23:49;;;;;;;45.75;34.33;;;;;;;5.02;60.24;101339.28;10289944;28;20104;-79
2022/03/23 23:28:53;;;;;;;42.50;32.25;;;;;;;4.89;61.01;101337.41;10309336;28;20069;-79
2022/03/23 23:33:57;;;;;;;47.45;33.92;;;;;;;5.00;61.60;101345.34;10318612;22;20035;-79
2022/03/23 23:38:58;;;;;;;35.88;30.77;;;;;;;4.82;61.65;101343.38;10468614;28;20045;-80
2022/03/23 23:44:00;;;;;;;41.95;31.10;;;;;;;4.80;62.06;101350.31;10504980;28;20048;-79
2022/03/23 23:49:02;;;;;;;37.80;31.83;;;;;;;4.77;62.23;101350.25;10484816;28;20049;-81
2022/03/23 23:54:04;;;;;;;44.35;33.08;;;;;;;5.07;61.44;101342.81;10487821;28;20097;-81
2022/03/23 23:59:05;;;;;;;50.35;34.13;;;;;;;4.97;61.18;101340.09;10485207;28;20045;-81
